Amana, Iowa
Current Conditions -  °F | °C
As of 6:52 PM on Saturday 20 Dec 2014 (Local Time) from KCID Reporting Station
Haze Haze  
Wind Chill: 24°   Ceiling: 300
Heat Index: 32°   Visibility: 1.7mi
Dew Point: 32°   Wind: 9mph
Humidity: 100%   Direction: 130°SE
Pressure: 30.17"   Gusts: NA
Location:  41.8°N, 91.87°W
Report Text: KCID 210052Z AUTO 13008KT 1 3/4SM BR OVC003 00/00 A3017 RMK AO2 SLP225 I1000 T00000000 $
Loading
Personal Weather Stations






























Interactive Weather Map New forecast layout! Learn more

10-Day Weather Forecast

Advertisements
Track Severe Weather on mobile